Time;durP1;ratioP1;P1;durP2;ratioP2;P2;SDS_P1;SDS_P2;PMS_P1;PMS_P2;Temp;Humidity;BMP_temperature;BMP_pressure;BME280_temperature;BME280_humidity;BME280_pressure;Samples;Min_cycle;Max_cycle;Signal;HPM_P1;HPM_P2
2022/03/08 00:01:46;;;;;;;19.90;11.07;;;2.90;99.90;;;;;;5027550;28;20440;-78
2022/03/08 00:04:11;;;;;;;17.20;11.18;;;2.80;99.90;;;;;;5031574;28;20030;-78
2022/03/08 00:06:37;;;;;;;18.15;11.75;;;2.80;99.90;;;;;;5037745;28;20029;-78
2022/03/08 00:09:03;;;;;;;18.25;11.32;;;2.80;99.90;;;;;;5038222;28;20037;-78
2022/03/08 00:11:30;;;;;;;17.38;11.55;;;2.80;99.90;;;;;;5035153;28;20032;-78
2022/03/08 00:13:56;;;;;;;19.90;12.77;;;2.80;99.90;;;;;;5036945;28;20021;-77
2022/03/08 00:16:21;;;;;;;19.08;12.20;;;2.80;99.90;;;;;;5033175;28;20355;-77
2022/03/08 00:18:49;;;;;;;19.63;11.75;;;2.80;99.90;;;;;;5032962;28;20034;-78
2022/03/08 00:21:18;;;;;;;19.70;12.02;;;2.70;99.90;;;;;;5036908;28;20473;-78
2022/03/08 00:23:44;;;;;;;21.58;12.63;;;2.60;99.90;;;;;;5041700;28;20355;-78
2022/03/08 00:26:10;;;;;;;16.88;11.90;;;2.60;99.90;;;;;;5044598;28;20169;-77
2022/03/08 00:28:36;;;;;;;19.23;12.38;;;2.60;99.90;;;;;;5042795;28;20033;-78
2022/03/08 00:31:02;;;;;;;18.20;11.82;;;2.60;99.90;;;;;;5025169;28;20040;-77
2022/03/08 00:33:28;;;;;;;18.42;11.77;;;2.50;99.90;;;;;;5041330;28;20051;-78
2022/03/08 00:35:54;;;;;;;20.35;12.35;;;2.60;99.90;;;;;;5044954;28;20025;-77
2022/03/08 00:38:21;;;;;;;17.30;11.95;;;2.60;99.90;;;;;;5033423;28;20041;-77
2022/03/08 00:40:47;;;;;;;20.20;12.00;;;2.60;99.90;;;;;;5036413;28;20033;-78
2022/03/08 00:43:12;;;;;;;17.27;12.23;;;2.50;99.90;;;;;;5032346;28;20038;-78
2022/03/08 00:45:39;;;;;;;14.35;10.82;;;2.50;99.90;;;;;;5036105;28;20111;-78
2022/03/08 00:48:05;;;;;;;19.20;12.18;;;2.50;99.90;;;;;;5026299;28;20030;-78
2022/03/08 00:50:31;;;;;;;19.42;11.57;;;2.50;99.90;;;;;;5036671;28;20059;-77
2022/03/08 00:52:59;;;;;;;18.27;11.38;;;2.50;99.90;;;;;;5034648;28;20026;-77
2022/03/08 00:55:27;;;;;;;16.45;10.57;;;2.60;99.90;;;;;;5041053;28;20014;-77
2022/03/08 00:57:54;;;;;;;16.40;9.50;;;2.50;99.90;;;;;;5032843;28;20041;-77
2022/03/08 01:00:23;;;;;;;18.42;10.77;;;2.60;99.90;;;;;;5034913;28;20024;-78
2022/03/08 01:02:49;;;;;;;19.23;10.40;;;2.60;99.90;;;;;;5029889;28;20437;-78
2022/03/08 01:05:15;;;;;;;17.90;11.88;;;2.50;99.90;;;;;;5028968;28;20443;-78
2022/03/08 01:07:41;;;;;;;18.95;10.80;;;2.60;99.90;;;;;;5033551;28;20548;-78
2022/03/08 01:10:10;;;;;;;17.17;10.80;;;2.50;99.90;;;;;;5042507;28;20021;-78
2022/03/08 01:12:36;;;;;;;15.18;10.75;;;2.60;99.90;;;;;;5041877;28;20112;-78
2022/03/08 01:15:04;;;;;;;17.50;10.98;;;2.60;99.90;;;;;;5048629;28;20096;-78
2022/03/08 01:17:30;;;;;;;19.13;10.82;;;2.60;99.90;;;;;;5033877;28;20476;-78
2022/03/08 01:19:56;;;;;;;19.98;12.48;;;2.60;99.90;;;;;;5044068;28;20109;-78
2022/03/08 01:22:22;;;;;;;17.83;11.77;;;2.60;99.90;;;;;;5041965;28;20067;-78
2022/03/08 01:24:47;;;;;;;19.05;11.38;;;2.60;99.90;;;;;;5046137;28;20108;-78
2022/03/08 01:27:13;;;;;;;19.05;11.88;;;2.60;99.90;;;;;;5026540;28;20115;-78
2022/03/08 01:29:39;;;;;;;17.33;11.32;;;2.60;99.90;;;;;;5033396;28;20041;-77
2022/03/08 01:32:05;;;;;;;20.13;11.73;;;2.60;99.90;;;;;;5033617;28;20050;-78
2022/03/08 01:34:31;;;;;;;18.50;11.07;;;2.60;99.90;;;;;;5032323;28;20064;-77
2022/03/08 01:36:57;;;;;;;22.83;12.13;;;2.50;99.90;;;;;;5046921;28;20071;-77
2022/03/08 01:39:23;;;;;;;20.00;11.38;;;2.50;99.90;;;;;;5044665;28;20033;-77
2022/03/08 01:41:49;;;;;;;20.00;11.98;;;2.50;99.90;;;;;;5037983;28;20159;-77
2022/03/08 01:44:17;;;;;;;17.13;11.15;;;2.50;99.90;;;;;;5039543;28;20084;-77
2022/03/08 01:46:42;;;;;;;18.20;11.50;;;2.40;99.90;;;;;;5031632;28;20029;-77
2022/03/08 01:49:08;;;;;;;18.20;12.50;;;2.40;99.90;;;;;;5041298;28;20429;-77
2022/03/08 01:51:37;;;;;;;21.65;12.85;;;2.40;99.90;;;;;;5033777;28;20029;-77
2022/03/08 01:54:04;;;;;;;22.17;12.50;;;2.40;99.90;;;;;;5036388;28;20026;-77
2022/03/08 01:56:29;;;;;;;18.60;11.32;;;2.40;99.90;;;;;;5035464;28;20034;-77
2022/03/08 01:58:56;;;;;;;19.40;11.77;;;2.30;99.90;;;;;;5035736;28;20073;-76
2022/03/08 02:01:22;;;;;;;20.60;11.90;;;2.30;99.90;;;;;;5039628;28;20024;-77
2022/03/08 02:03:48;;;;;;;21.83;13.20;;;2.30;99.90;;;;;;5040783;28;20033;-77
2022/03/08 02:06:14;;;;;;;18.85;11.77;;;2.30;99.90;;;;;;5046841;28;20025;-77
2022/03/08 02:08:41;;;;;;;18.63;11.60;;;2.30;99.90;;;;;;5049463;28;20029;-77
2022/03/08 02:11:07;;;;;;;19.42;11.05;;;2.30;99.90;;;;;;5042892;28;20029;-77
2022/03/08 02:13:32;;;;;;;18.33;12.02;;;2.30;99.90;;;;;;5036758;28;20067;-77
2022/03/08 02:15:58;;;;;;;19.25;12.23;;;2.20;99.90;;;;;;5042041;28;20096;-77
2022/03/08 02:18:24;;;;;;;21.08;12.82;;;2.20;99.90;;;;;;5028648;28;20044;-77
2022/03/08 02:20:49;;;;;;;23.25;12.82;;;2.20;99.90;;;;;;5037693;28;20112;-76
2022/03/08 02:23:15;;;;;;;22.35;13.63;;;2.20;99.90;;;;;;5037347;28;20022;-76
2022/03/08 02:25:41;;;;;;;21.77;12.98;;;2.20;99.90;;;;;;5036340;28;20627;-77
2022/03/08 02:28:07;;;;;;;18.17;12.00;;;2.10;99.90;;;;;;5032905;28;20075;-77
2022/03/08 02:30:33;;;;;;;21.38;13.07;;;2.10;99.90;;;;;;5040907;28;20393;-77
2022/03/08 02:32:59;;;;;;;22.35;13.82;;;2.10;99.90;;;;;;5048519;28;20024;-77
2022/03/08 02:35:27;;;;;;;19.13;12.25;;;2.10;99.90;;;;;;5034794;28;20033;-77
2022/03/08 02:38:00;;;;;;;18.95;12.98;;;2.10;99.90;;;;;;5033334;28;20026;-77
2022/03/08 02:40:32;;;;;;;21.25;13.88;;;2.10;99.90;;;;;;5042152;28;20121;-77
2022/03/08 02:42:58;;;;;;;19.50;12.70;;;2.10;99.90;;;;;;5043509;28;20021;-77
2022/03/08 02:45:24;;;;;;;18.83;11.73;;;2.00;99.90;;;;;;5033353;28;20390;-77
2022/03/08 02:47:50;;;;;;;18.55;11.27;;;2.00;99.90;;;;;;5030469;28;20024;-77
2022/03/08 02:50:18;;;;;;;19.38;11.05;;;2.00;99.90;;;;;;5040552;28;20029;-77
2022/03/08 02:52:45;;;;;;;20.33;11.65;;;2.00;99.90;;;;;;5029645;28;20036;-76
2022/03/08 02:55:12;;;;;;;21.83;12.43;;;2.00;99.90;;;;;;5043472;28;20025;-77
2022/03/08 02:57:39;;;;;;;21.23;12.48;;;2.00;99.90;;;;;;5034446;28;20036;-77
2022/03/08 03:00:08;;;;;;;19.02;12.05;;;2.00;99.90;;;;;;5038410;28;20112;-77
2022/03/08 03:02:34;;;;;;;19.10;11.75;;;2.00;99.90;;;;;;5022949;28;20017;-77
2022/03/08 03:05:00;;;;;;;20.15;12.30;;;2.00;99.90;;;;;;5035539;28;20036;-76
2022/03/08 03:07:26;;;;;;;21.17;13.18;;;1.90;99.90;;;;;;5046219;28;20022;-76
2022/03/08 03:09:52;;;;;;;18.10;12.23;;;1.90;99.90;;;;;;5027992;28;20024;-76
2022/03/08 03:12:18;;;;;;;21.50;11.65;;;1.90;99.90;;;;;;5041490;28;20060;-77
2022/03/08 03:14:44;;;;;;;17.50;11.45;;;1.90;99.90;;;;;;5038643;28;20041;-76
2022/03/08 03:17:10;;;;;;;22.73;12.20;;;1.90;99.90;;;;;;5034123;28;20036;-77
2022/03/08 03:19:37;;;;;;;20.40;12.60;;;1.80;99.90;;;;;;5039338;28;20032;-76
2022/03/08 03:22:03;;;;;;;20.88;12.32;;;1.80;99.90;;;;;;5029121;28;20104;-77
2022/03/08 03:24:29;;;;;;;25.08;13.07;;;1.80;99.90;;;;;;5025624;28;20046;-77
2022/03/08 03:26:54;;;;;;;21.63;12.60;;;1.80;99.90;;;;;;5032111;28;20025;-76
2022/03/08 03:29:20;;;;;;;20.42;13.35;;;1.80;99.90;;;;;;5043862;28;20545;-76
2022/03/08 03:31:46;;;;;;;20.05;12.90;;;1.80;99.90;;;;;;5039485;28;20052;-77
2022/03/08 03:34:11;;;;;;;22.63;12.55;;;1.80;99.90;;;;;;5046880;28;20040;-77
2022/03/08 03:36:37;;;;;;;24.90;13.07;;;1.80;99.90;;;;;;5045873;28;20025;-76
2022/03/08 03:39:06;;;;;;;21.20;12.65;;;1.90;99.90;;;;;;5041683;28;20466;-77
2022/03/08 03:41:32;;;;;;;21.38;11.68;;;1.80;99.90;;;;;;5035452;28;20029;-76
2022/03/08 03:43:58;;;;;;;18.50;12.50;;;1.90;99.90;;;;;;5033313;28;20029;-77
2022/03/08 03:46:24;;;;;;;18.08;12.43;;;1.80;99.90;;;;;;5037207;28;20026;-77
2022/03/08 03:48:49;;;;;;;19.02;12.50;;;1.80;99.90;;;;;;5045559;28;20029;-77
2022/03/08 03:51:16;;;;;;;19.65;12.48;;;1.80;99.90;;;;;;5043954;28;20030;-77
2022/03/08 03:53:43;;;;;;;18.42;11.55;;;1.70;99.90;;;;;;5035720;28;21121;-77
2022/03/08 03:56:09;;;;;;;21.20;12.27;;;1.70;99.90;;;;;;5030356;28;20109;-77
2022/03/08 03:58:34;;;;;;;19.83;11.80;;;1.60;99.90;;;;;;5033974;28;20140;-76
2022/03/08 04:01:00;;;;;;;19.88;11.77;;;1.60;99.90;;;;;;5037790;28;20017;-77
2022/03/08 04:03:26;;;;;;;19.70;12.30;;;1.60;99.90;;;;;;5032074;28;20029;-77
2022/03/08 04:05:51;;;;;;;21.63;11.73;;;1.60;99.90;;;;;;5035502;28;20024;-77
2022/03/08 04:08:20;;;;;;;19.38;11.98;;;1.60;99.90;;;;;;5042546;28;20021;-77
2022/03/08 04:10:48;;;;;;;19.60;11.82;;;1.50;99.90;;;;;;5033946;28;20108;-77
2022/03/08 04:13:14;;;;;;;18.23;11.60;;;1.50;99.90;;;;;;5035312;28;20660;-77
2022/03/08 04:15:41;;;;;;;18.92;12.00;;;1.50;99.90;;;;;;5035466;28;20589;-77
2022/03/08 04:18:07;;;;;;;18.90;11.85;;;1.50;99.90;;;;;;5021513;28;20034;-77
2022/03/08 04:20:33;;;;;;;23.00;13.13;;;1.40;99.90;;;;;;5040285;28;20033;-77
2022/03/08 04:22:59;;;;;;;21.67;11.88;;;1.30;99.90;;;;;;5024935;28;20034;-77
2022/03/08 04:25:25;;;;;;;20.20;12.35;;;1.30;99.90;;;;;;5038701;28;20119;-78
2022/03/08 04:27:51;;;;;;;17.45;11.27;;;1.40;99.90;;;;;;5032999;28;20090;-76
2022/03/08 04:30:17;;;;;;;22.33;12.80;;;1.40;99.90;;;;;;5027569;28;20026;-77
2022/03/08 04:32:42;;;;;;;24.30;12.55;;;1.30;99.90;;;;;;5032995;28;20025;-77
2022/03/08 04:35:08;;;;;;;20.23;12.65;;;1.40;99.90;;;;;;5035920;28;20489;-77
2022/03/08 04:37:35;;;;;;;19.15;11.48;;;1.40;99.90;;;;;;5045926;28;20021;-77
2022/03/08 04:40:02;;;;;;;19.02;12.18;;;1.40;99.90;;;;;;5027504;28;20036;-77
2022/03/08 04:42:28;;;;;;;19.83;11.80;;;1.40;99.90;;;;;;5026220;28;20030;-77
2022/03/08 04:44:54;;;;;;;20.35;12.90;;;1.40;99.90;;;;;;5023153;28;20036;-77
2022/03/08 04:47:20;;;;;;;19.15;12.05;;;1.30;99.90;;;;;;5034883;28;20572;-77
2022/03/08 04:49:46;;;;;;;23.23;13.00;;;1.30;99.90;;;;;;5034327;28;20052;-77
2022/03/08 04:52:11;;;;;;;19.92;11.65;;;1.30;99.90;;;;;;5036666;28;20068;-77
2022/03/08 04:54:37;;;;;;;20.50;11.80;;;1.30;99.90;;;;;;5031643;28;20128;-77
2022/03/08 04:57:03;;;;;;;20.90;11.98;;;1.30;99.90;;;;;;5026646;28;20402;-79
2022/03/08 04:59:28;;;;;;;18.20;11.85;;;1.30;99.90;;;;;;5037990;28;20036;-77
2022/03/08 05:01:54;;;;;;;20.08;12.48;;;1.20;99.90;;;;;;5030445;28;20048;-77
2022/03/08 05:04:21;;;;;;;20.88;12.30;;;1.20;99.90;;;;;;5029493;28;20041;-77
2022/03/08 05:06:47;;;;;;;20.55;11.95;;;1.20;99.90;;;;;;5037487;28;20032;-77
2022/03/08 05:09:13;;;;;;;19.98;11.48;;;1.20;99.90;;;;;;5038917;28;20095;-77
2022/03/08 05:11:38;;;;;;;17.70;11.68;;;1.20;99.90;;;;;;5029939;28;20021;-77
2022/03/08 05:14:05;;;;;;;24.25;13.40;;;1.20;99.90;;;;;;5044451;28;20504;-77
2022/03/08 05:16:31;;;;;;;19.70;12.00;;;1.20;99.90;;;;;;5034366;28;20041;-77
2022/03/08 05:18:58;;;;;;;19.73;12.45;;;1.30;99.90;;;;;;5038711;28;20033;-77
2022/03/08 05:21:23;;;;;;;20.80;12.02;;;1.20;99.90;;;;;;5029973;28;20196;-77
2022/03/08 05:23:49;;;;;;;18.80;12.05;;;1.20;99.90;;;;;;5040149;28;20029;-76
2022/03/08 05:26:15;;;;;;;20.17;12.23;;;1.20;99.90;;;;;;5034151;28;20424;-76
2022/03/08 05:28:46;;;;;;;15.93;10.73;;;1.20;99.90;;;;;;5031026;28;20041;-78
2022/03/08 05:31:12;;;;;;;21.67;11.05;;;1.20;99.90;;;;;;5033187;28;20082;-78
2022/03/08 05:33:38;;;;;;;24.38;13.15;;;1.20;99.90;;;;;;5026403;28;20038;-78
2022/03/08 05:36:04;;;;;;;20.98;12.48;;;1.10;99.90;;;;;;5025422;28;20140;-76
2022/03/08 05:38:30;;;;;;;21.15;12.98;;;1.10;99.90;;;;;;5035877;28;20128;-76
2022/03/08 05:40:56;;;;;;;24.15;13.70;;;1.10;99.90;;;;;;5029839;28;20048;-77
2022/03/08 05:43:21;;;;;;;24.48;12.93;;;1.10;99.90;;;;;;5037086;28;20388;-76
2022/03/08 05:45:47;;;;;;;18.27;11.57;;;1.20;99.90;;;;;;5040048;28;20032;-72
2022/03/08 05:48:13;;;;;;;18.70;11.63;;;1.00;99.90;;;;;;5023471;28;20037;-76
2022/03/08 05:50:39;;;;;;;20.83;12.18;;;1.10;99.90;;;;;;5035328;28;20541;-77
2022/03/08 05:53:04;;;;;;;19.58;12.05;;;1.00;99.90;;;;;;5024963;28;20386;-76
2022/03/08 05:55:30;;;;;;;18.02;11.75;;;1.00;99.90;;;;;;5036531;28;20465;-76
2022/03/08 05:57:56;;;;;;;18.80;12.20;;;1.00;99.90;;;;;;5037418;28;20045;-76
2022/03/08 06:00:21;;;;;;;22.48;13.00;;;1.00;99.90;;;;;;5039562;28;20033;-76
2022/03/08 06:02:47;;;;;;;18.17;12.40;;;1.00;99.90;;;;;;5037587;28;20038;-76
2022/03/08 06:05:13;;;;;;;19.65;11.52;;;0.90;99.90;;;;;;5049788;28;20462;-76
2022/03/08 06:07:39;;;;;;;19.23;11.95;;;0.90;99.90;;;;;;5033972;28;20103;-76
2022/03/08 06:10:07;;;;;;;21.17;11.13;;;0.80;99.90;;;;;;5034362;28;20497;-76
2022/03/08 06:12:33;;;;;;;19.90;11.98;;;0.80;99.90;;;;;;5043602;28;20112;-76
2022/03/08 06:14:58;;;;;;;19.25;12.07;;;0.80;99.90;;;;;;5036911;28;20108;-76
2022/03/08 06:17:24;;;;;;;19.75;11.50;;;0.90;99.90;;;;;;5045364;28;20541;-76
2022/03/08 06:19:50;;;;;;;26.38;12.07;;;0.90;99.90;;;;;;5033817;28;20462;-77
2022/03/08 06:22:16;;;;;;;19.65;10.60;;;0.90;99.90;;;;;;5028156;28;20129;-77
2022/03/08 06:24:41;;;;;;;19.75;11.35;;;0.90;99.90;;;;;;5039365;28;20033;-79
2022/03/08 06:27:08;;;;;;;20.08;10.75;;;0.90;99.90;;;;;;5039784;28;20036;-75
2022/03/08 06:29:33;;;;;;;18.20;11.48;;;0.90;99.90;;;;;;5034250;28;20029;-76
2022/03/08 06:31:59;;;;;;;20.45;10.77;;;0.90;99.90;;;;;;5051228;28;20500;-76
2022/03/08 06:34:24;;;;;;;24.30;11.75;;;0.80;99.90;;;;;;5041409;28;20410;-75
2022/03/08 06:36:50;;;;;;;20.10;10.85;;;0.80;99.90;;;;;;5041117;28;20049;-76
2022/03/08 06:39:16;;;;;;;20.58;12.00;;;0.70;99.90;;;;;;5023807;28;20049;-77
2022/03/08 06:41:42;;;;;;;19.40;11.38;;;0.80;99.90;;;;;;5029539;28;20052;-76
2022/03/08 06:44:08;;;;;;;20.27;11.63;;;0.80;99.90;;;;;;5030395;28;20064;-76
2022/03/08 06:46:33;;;;;;;20.15;11.25;;;0.80;99.90;;;;;;5033173;28;20056;-76
2022/03/08 06:48:59;;;;;;;18.05;10.88;;;0.80;99.90;;;;;;5027522;28;20061;-78
2022/03/08 06:51:25;;;;;;;16.35;10.50;;;0.80;99.90;;;;;;5041856;28;20029;-78
2022/03/08 06:53:52;;;;;;;15.75;10.85;;;0.70;99.90;;;;;;5026765;28;20496;-76
2022/03/08 06:56:17;;;;;;;16.70;10.95;;;0.80;99.90;;;;;;5040144;28;20044;-78
2022/03/08 06:58:43;;;;;;;18.58;12.13;;;0.80;99.90;;;;;;5038128;28;20037;-76
2022/03/08 07:01:09;;;;;;;18.95;11.35;;;0.80;99.90;;;;;;5038309;28;20060;-75
2022/03/08 07:03:35;;;;;;;18.23;11.82;;;0.90;99.90;;;;;;5037841;28;20053;-75
2022/03/08 07:06:01;;;;;;;19.30;11.45;;;0.80;99.90;;;;;;5048581;28;20507;-75
2022/03/08 07:08:26;;;;;;;15.85;10.65;;;0.80;99.90;;;;;;5044167;28;20392;-76
2022/03/08 07:10:52;;;;;;;19.73;9.93;;;0.90;99.90;;;;;;5033268;28;20031;-76
2022/03/08 07:13:18;;;;;;;17.38;10.50;;;0.90;99.90;;;;;;5036519;28;20052;-81
2022/03/08 07:15:44;;;;;;;15.57;9.98;;;1.00;99.90;;;;;;5044964;28;20469;-77
2022/03/08 07:18:10;;;;;;;13.95;9.82;;;1.10;99.90;;;;;;5041390;28;20048;-78
2022/03/08 07:20:35;;;;;;;19.48;11.20;;;1.10;99.90;;;;;;5035395;28;20034;-78
2022/03/08 07:23:01;;;;;;;17.27;10.23;;;1.20;99.90;;;;;;5028865;28;20473;-78
2022/03/08 07:25:27;;;;;;;16.48;9.80;;;1.20;99.90;;;;;;5043243;28;20029;-79
2022/03/08 07:27:52;;;;;;;11.90;8.95;;;1.40;99.90;;;;;;5048892;28;20029;-78
2022/03/08 07:30:18;;;;;;;11.68;8.20;;;1.50;99.90;;;;;;5024184;28;20382;-78
2022/03/08 07:32:44;;;;;;;14.38;8.73;;;1.70;99.90;;;;;;5032550;28;20478;-78
2022/03/08 07:35:10;;;;;;;17.60;9.27;;;1.70;99.90;;;;;;5027401;28;20486;-79
2022/03/08 07:37:38;;;;;;;17.35;9.23;;;1.80;99.90;;;;;;5030761;28;20048;-78
2022/03/08 07:40:05;;;;;;;15.45;8.70;;;2.00;99.90;;;;;;5036921;28;20044;-76
2022/03/08 07:42:31;;;;;;;15.13;9.90;;;2.00;99.90;;;;;;5037085;28;20020;-77
2022/03/08 07:44:57;;;;;;;13.43;9.05;;;2.20;99.90;;;;;;5047636;28;20028;-77
2022/03/08 07:47:23;;;;;;;14.05;9.57;;;2.30;99.90;;;;;;5046645;28;20067;-80
2022/03/08 07:49:49;;;;;;;14.55;8.65;;;2.40;99.90;;;;;;5039523;28;20029;-80
2022/03/08 07:52:15;;;;;;;11.80;8.00;;;2.50;99.90;;;;;;5037075;28;20039;-80
2022/03/08 07:54:40;;;;;;;13.02;8.25;;;2.60;99.90;;;;;;5027729;28;20025;-80
2022/03/08 07:57:06;;;;;;;12.88;9.20;;;2.70;99.90;;;;;;5024763;28;20422;-79
2022/03/08 07:59:32;;;;;;;10.32;7.45;;;2.90;99.90;;;;;;5036284;28;20059;-78
2022/03/08 08:01:57;;;;;;;10.52;7.88;;;3.00;99.90;;;;;;5039932;28;20489;-78
2022/03/08 08:04:23;;;;;;;12.88;8.48;;;3.20;99.90;;;;;;5039536;28;20439;-83
2022/03/08 08:06:50;;;;;;;10.18;7.75;;;3.40;99.90;;;;;;5043209;28;20025;-81
2022/03/08 08:09:16;;;;;;;11.10;8.25;;;3.50;99.90;;;;;;5026892;28;20029;-76
2022/03/08 08:11:41;;;;;;;13.95;7.55;;;3.70;99.90;;;;;;5033986;28;20026;-81
2022/03/08 08:14:07;;;;;;;10.43;7.10;;;3.80;99.90;;;;;;5038578;28;20049;-85
2022/03/08 08:16:33;;;;;;;10.52;7.40;;;3.90;99.90;;;;;;5042901;28;20025;-81
2022/03/08 08:18:58;;;;;;;12.57;7.38;;;4.10;99.90;;;;;;5031238;28;20393;-80
2022/03/08 08:21:24;;;;;;;9.30;6.95;;;4.20;99.80;;;;;;5034668;28;20372;-81
2022/03/08 08:23:50;;;;;;;10.73;7.43;;;4.30;99.90;;;;;;5032952;28;20026;-80
2022/03/08 08:26:16;;;;;;;10.60;7.85;;;4.40;99.70;;;;;;5036291;28;20037;-79
2022/03/08 08:28:41;;;;;;;9.88;7.72;;;4.60;99.10;;;;;;5046644;28;20745;-77
2022/03/08 08:31:07;;;;;;;9.88;7.32;;;4.70;99.10;;;;;;5031359;28;20367;-78
2022/03/08 08:33:33;;;;;;;11.23;7.05;;;4.80;98.50;;;;;;5035498;28;20493;-77
2022/03/08 08:35:59;;;;;;;12.00;7.90;;;4.90;98.20;;;;;;5030568;28;20037;-76
2022/03/08 08:38:25;;;;;;;9.13;6.50;;;4.90;98.40;;;;;;5030625;28;20087;-79
2022/03/08 08:40:51;;;;;;;9.88;6.80;;;4.90;98.30;;;;;;5040284;28;20025;-80
2022/03/08 08:43:16;;;;;;;14.00;7.50;;;5.00;97.90;;;;;;5025547;28;20025;-78
2022/03/08 08:45:42;;;;;;;8.65;6.88;;;5.10;98.00;;;;;;5037465;28;20048;-78
2022/03/08 08:48:08;;;;;;;10.25;7.07;;;5.20;98.70;;;;;;5024843;28;20055;-78
2022/03/08 08:50:35;;;;;;;11.13;7.38;;;5.30;97.60;;;;;;5041923;28;20037;-78
2022/03/08 08:53:01;;;;;;;9.73;6.82;;;5.50;97.20;;;;;;5036759;28;20519;-78
2022/03/08 08:55:26;;;;;;;10.85;7.18;;;5.50;97.50;;;;;;5035628;28;20025;-79
2022/03/08 08:57:52;;;;;;;8.85;6.95;;;5.60;96.60;;;;;;5047544;28;20068;-79
2022/03/08 09:00:18;;;;;;;10.13;6.72;;;5.70;97.60;;;;;;5037736;28;20029;-79
2022/03/08 09:02:45;;;;;;;8.30;6.72;;;5.80;98.20;;;;;;5022540;28;20026;-78
2022/03/08 09:05:12;;;;;;;9.90;6.68;;;6.00;96.60;;;;;;5036516;28;20123;-78
2022/03/08 09:07:38;;;;;;;9.65;6.97;;;6.20;96.80;;;;;;5040133;28;20083;-77
2022/03/08 09:10:06;;;;;;;10.98;7.03;;;6.20;95.60;;;;;;5036195;28;20029;-78
2022/03/08 09:12:32;;;;;;;10.23;6.90;;;6.30;96.80;;;;;;5032739;28;20025;-78
2022/03/08 09:14:57;;;;;;;10.30;7.60;;;6.30;95.50;;;;;;5031293;28;20021;-78
2022/03/08 09:17:23;;;;;;;11.32;7.70;;;6.50;95.70;;;;;;5039530;28;20051;-79
2022/03/08 09:19:49;;;;;;;7.65;6.15;;;6.60;94.80;;;;;;5028560;28;20399;-79
2022/03/08 09:22:14;;;;;;;8.52;5.95;;;6.60;95.60;;;;;;5033090;28;20583;-80
2022/03/08 09:24:41;;;;;;;8.30;6.60;;;6.70;94.70;;;;;;5041889;28;20526;-81
2022/03/08 09:27:08;;;;;;;9.68;6.80;;;6.70;94.00;;;;;;5039174;28;20040;-80
2022/03/08 09:29:33;;;;;;;11.00;6.50;;;6.90;93.80;;;;;;5041188;28;20040;-80
2022/03/08 09:31:59;;;;;;;11.43;7.00;;;7.00;94.30;;;;;;5028521;28;20032;-80
2022/03/08 09:34:25;;;;;;;10.32;6.45;;;7.10;94.60;;;;;;5027471;28;20355;-80
2022/03/08 09:36:50;;;;;;;8.50;6.18;;;7.20;94.70;;;;;;5037043;28;20395;-80
2022/03/08 09:39:16;;;;;;;8.73;5.65;;;7.30;93.90;;;;;;5026904;28;20061;-80
2022/03/08 09:41:43;;;;;;;7.05;5.90;;;7.30;93.10;;;;;;5040012;28;20454;-79
2022/03/08 09:44:15;;;;;;;10.18;6.00;;;7.50;93.10;;;;;;5032250;28;20442;-80
2022/03/08 09:46:41;;;;;;;8.82;6.45;;;7.60;94.30;;;;;;5030277;28;20029;-78
2022/03/08 09:49:07;;;;;;;8.35;5.90;;;7.80;93.40;;;;;;5033452;28;20038;-79
2022/03/08 09:51:37;;;;;;;7.38;6.25;;;7.80;93.10;;;;;;5036728;28;20127;-78
2022/03/08 09:54:03;;;;;;;8.73;6.72;;;7.90;92.50;;;;;;5031477;28;20412;-78
2022/03/08 09:56:29;;;;;;;8.80;6.38;;;8.00;92.60;;;;;;5041222;28;20493;-79
2022/03/08 09:58:55;;;;;;;9.00;6.05;;;8.00;92.70;;;;;;5038402;28;20037;-78
2022/03/08 10:01:21;;;;;;;6.80;6.10;;;8.10;92.20;;;;;;5030413;28;20406;-78
2022/03/08 10:03:49;;;;;;;7.85;6.10;;;8.10;91.90;;;;;;5028078;28;20099;-78
2022/03/08 10:06:15;;;;;;;7.20;6.45;;;8.30;93.30;;;;;;5033489;28;20032;-78
2022/03/08 10:08:41;;;;;;;11.15;6.50;;;8.40;92.30;;;;;;5025209;28;20033;-77
2022/03/08 10:11:11;;;;;;;9.82;6.00;;;8.50;92.80;;;;;;5040334;28;20029;-78
2022/03/08 10:13:42;;;;;;;8.00;5.72;;;8.70;91.90;;;;;;5020796;28;20021;-77
2022/03/08 10:16:10;;;;;;;10.07;5.80;;;8.70;91.50;;;;;;5031894;28;20036;-81
2022/03/08 10:18:42;;;;;;;11.30;7.15;;;8.70;91.00;;;;;;5033555;28;20660;-80
2022/03/08 10:21:29;;;;;;;7.33;6.07;;;8.90;91.10;;;;;;5040974;28;20094;-81
2022/03/08 10:23:55;;;;;;;7.60;5.93;;;8.80;91.10;;;;;;5034667;28;20385;-81
2022/03/08 10:26:21;;;;;;;12.13;6.38;;;8.90;91.00;;;;;;5035769;28;20030;-82
2022/03/08 10:28:50;;;;;;;10.38;5.63;;;9.00;91.20;;;;;;5032085;28;20544;-79
2022/03/08 10:31:16;;;;;;;8.43;6.00;;;9.10;90.80;;;;;;5031353;28;20031;-80
2022/03/08 10:33:43;;;;;;;10.38;6.47;;;9.10;91.00;;;;;;5031022;28;20032;-81
2022/03/08 10:36:17;;;;;;;7.75;5.97;;;9.20;90.30;;;;;;5032009;28;20492;-83
2022/03/08 10:39:12;;;;;;;7.75;6.10;;;9.20;90.60;;;;;;5037114;28;20039;-82
2022/03/08 10:41:45;;;;;;;8.40;6.10;;;9.40;90.40;;;;;;5044414;28;20044;-82
2022/03/08 10:44:10;;;;;;;;;;;9.40;89.30;;;;;;5031513;28;20104;-78
2022/03/08 10:46:36;;;;;;;9.48;6.18;;;9.50;90.10;;;;;;5037528;28;19996;-81
2022/03/08 10:49:13;;;;;;;6.68;5.97;;;9.70;90.30;;;;;;5039527;28;20037;-82
2022/03/08 10:51:39;;;;;;;7.43;5.47;;;9.90;90.90;;;;;;5030675;28;20021;-84
2022/03/08 10:54:15;;;;;;;7.43;5.88;;;10.00;90.90;;;;;;5043552;28;20095;-83
2022/03/08 10:56:45;;;;;;;7.97;6.45;;;9.90;90.10;;;;;;5039792;28;20072;-82
2022/03/08 10:59:12;;;;;;;8.35;5.75;;;10.00;89.50;;;;;;5033273;28;20041;-82
2022/03/08 11:01:38;;;;;;;10.10;6.20;;;9.90;87.80;;;;;;5035336;28;20025;-82
2022/03/08 11:04:15;;;;;;;8.20;5.68;;;10.00;90.10;;;;;;5045181;28;20033;-80
2022/03/08 11:06:41;;;;;;;8.65;5.45;;;10.10;90.40;;;;;;5031931;28;20108;-80
2022/03/08 11:09:08;;;;;;;11.43;5.80;;;10.20;87.40;;;;;;5037365;28;20033;-80
2022/03/08 11:11:35;;;;;;;8.07;5.95;;;10.10;86.70;;;;;;5031783;28;20150;-82
2022/03/08 11:14:00;;;;;;;14.98;5.90;;;9.90;88.40;;;;;;5036182;28;20021;-81
2022/03/08 11:16:28;;;;;;;7.57;6.40;;;10.20;90.00;;;;;;5034389;28;20037;-80
2022/03/08 11:18:54;;;;;;;7.40;6.10;;;10.30;89.20;;;;;;5036522;28;20040;-82
2022/03/08 11:21:21;;;;;;;8.27;5.43;;;10.50;89.40;;;;;;5036115;28;20033;-82
2022/03/08 11:23:47;;;;;;;7.95;5.35;;;10.60;90.20;;;;;;5041006;28;20052;-82
2022/03/08 11:26:17;;;;;;;9.68;5.47;;;10.70;90.90;;;;;;5040788;28;20021;-80
2022/03/08 11:28:47;;;;;;;10.73;6.47;;;11.10;91.80;;;;;;5035535;28;20041;-81
2022/03/08 11:31:17;;;;;;;10.27;6.25;;;11.00;90.60;;;;;;5035424;28;20025;-82
2022/03/08 11:33:58;;;;;;;8.85;6.35;;;11.00;91.60;;;;;;5032571;28;20021;-80
2022/03/08 11:36:30;;;;;;;8.63;6.15;;;10.90;85.80;;;;;;5026401;28;20029;-81
2022/03/08 11:39:14;;;;;;;8.35;5.65;;;10.80;86.80;;;;;;5033665;28;20041;-84
2022/03/08 11:41:40;;;;;;;7.47;5.93;;;10.80;85.60;;;;;;5032334;28;20037;-84
2022/03/08 11:44:06;;;;;;;7.95;5.78;;;11.00;90.60;;;;;;5034912;28;20150;-82
2022/03/08 11:46:33;;;;;;;6.50;5.43;;;10.90;88.60;;;;;;5031665;28;20029;-85
2022/03/08 11:49:04;;;;;;;8.80;5.60;;;10.90;87.10;;;;;;5031918;28;20018;-83
2022/03/08 11:51:32;;;;;;;6.13;5.10;;;11.00;85.80;;;;;;5031777;28;20025;-85
2022/03/08 11:54:24;;;;;;;9.07;5.95;;;10.90;87.60;;;;;;5033533;28;20280;-83
2022/03/08 11:56:51;;;;;;;8.65;6.35;;;11.00;84.60;;;;;;5030087;28;20029;-82
2022/03/08 11:59:18;;;;;;;6.22;5.18;;;10.90;86.50;;;;;;5031110;28;20049;-81
2022/03/08 12:01:44;;;;;;;6.15;5.28;;;11.10;88.40;;;;;;5034694;28;20639;-79
2022/03/08 12:04:12;;;;;;;6.13;4.82;;;11.10;82.60;;;;;;5039615;28;20501;-84
2022/03/08 12:06:39;;;;;;;7.22;5.75;;;11.20;88.30;;;;;;5029905;28;20037;-84
2022/03/08 12:09:07;;;;;;;8.50;4.85;;;11.30;86.10;;;;;;5022450;28;20731;-79
2022/03/08 12:11:35;;;;;;;9.43;5.63;;;11.30;84.20;;;;;;5026730;28;20033;-84
2022/03/08 12:14:04;;;;;;;7.25;5.70;;;11.40;83.80;;;;;;5026179;28;20024;-85
2022/03/08 12:16:30;;;;;;;8.35;4.75;;;11.50;83.70;;;;;;5039049;28;20385;-87
2022/03/08 12:18:58;;;;;;;9.10;5.50;;;11.40;82.10;;;;;;5033471;28;20037;-86
2022/03/08 12:21:24;;;;;;;8.07;5.32;;;11.40;86.50;;;;;;5036450;28;20037;-85
2022/03/08 12:23:58;;;;;;;5.82;4.90;;;11.50;82.30;;;;;;5030730;28;20494;-88
2022/03/08 12:26:33;;;;;;;6.63;4.28;;;11.50;83.70;;;;;;5033895;28;20537;-83
2022/03/08 12:29:15;;;;;;;6.75;4.88;;;11.60;80.30;;;;;;5026251;28;20067;-80
2022/03/08 12:31:56;;;;;;;7.03;5.37;;;11.70;80.60;;;;;;5029177;28;20038;-83
2022/03/08 12:34:39;;;;;;;6.15;5.20;;;11.70;81.90;;;;;;5021980;28;20283;-83
2022/03/08 12:37:18;;;;;;;5.93;5.22;;;11.80;84.40;;;;;;5032725;28;20035;-84
2022/03/08 12:39:58;;;;;;;7.43;5.10;;;11.50;80.70;;;;;;5035448;28;20088;-83
2022/03/08 12:42:24;;;;;;;6.70;4.65;;;11.50;80.50;;;;;;5026495;28;20040;-83